Time;durP1;ratioP1;P1;durP2;ratioP2;P2;SDS_P1;SDS_P2;PMS_P1;PMS_P2;Temp;Humidity;BMP_temperature;BMP_pressure;BME280_temperature;BME280_humidity;BME280_pressure;Samples;Min_cycle;Max_cycle;Signal;HPM_P1;HPM_P2
2023/12/13 00:00:15;;;;;;;;;;;;;;;;;;5029048;28;20384;-81
2023/12/13 00:02:40;;;;;;;;;;;;;;;;;;5031175;28;19925;-82
2023/12/13 00:05:05;;;;;;;;;;;;;;;;;;5029695;28;19921;-82
2023/12/13 00:07:30;;;;;;;;;;;;;;;;;;5033457;28;19932;-82
2023/12/13 00:09:56;;;;;;;;;;;;;;;;;;5033421;28;19940;-82
2023/12/13 00:12:21;;;;;;;;;;;;;;;;;;5033701;28;19932;-82
2023/12/13 00:14:46;;;;;;;;;;;;;;;;;;5030384;28;20371;-82
2023/12/13 00:17:14;;;;;;;;;;;;;;;;;;5027805;28;19995;-82
2023/12/13 00:19:39;;;;;;;;;;;;;;;;;;5037171;28;20008;-81
2023/12/13 00:22:04;;;;;;;;;;;;;;;;;;5035045;28;19956;-82
2023/12/13 00:24:29;;;;;;;;;;;;;;;;;;5038538;28;20016;-82
2023/12/13 00:26:54;;;;;;;;;;;;;;;;;;5028110;28;19921;-82
2023/12/13 00:29:19;;;;;;;;;;;;;;;;;;5035014;28;19928;-81
2023/12/13 00:31:45;;;;;;;;;;;;;;;;;;5030192;28;19921;-82
2023/12/13 00:34:10;;;;;;;;;;;;;;;;;;5036436;28;19988;-82
2023/12/13 00:36:35;;;;;;;;;;;;;;;;;;5027464;28;19999;-82
2023/12/13 00:39:00;;;;;;;;;;;;;;;;;;5025138;28;19968;-81
2023/12/13 00:41:26;;;;;;;;;;;;;;;;;;5020864;28;20012;-81
2023/12/13 00:43:51;;;;;;;;;;;;;;;;;;5023977;28;19921;-81
2023/12/13 00:46:22;;;;;;;;;;;;;;;;;;5025936;28;20291;-82
2023/12/13 00:48:47;;;;;;;;;;;;;;;;;;5025277;28;20393;-81
2023/12/13 00:51:12;;;;;;;;;;;;;;;;;;5024693;28;20370;-81
2023/12/13 00:53:38;;;;;;;;;;;;;;;;;;5042756;28;19927;-82
2023/12/13 00:56:04;;;;;;;;;;;;;;;;;;5035667;28;19924;-81
2023/12/13 00:58:29;;;;;;;;;;;;;;;;;;5033189;28;19960;-82
2023/12/13 01:00:54;;;;;;;;;;;;;;;;;;5024424;28;19958;-81
2023/12/13 01:03:19;;;;;;;;;;;;;;;;;;5035386;28;20026;-82
2023/12/13 01:05:44;;;;;;;;;;;;;;;;;;5036709;28;20015;-81
2023/12/13 01:08:09;;;;;;;;;;;;;;;;;;5030120;28;19929;-82
2023/12/13 01:10:34;;;;;;;;;;;;;;;;;;5028887;28;19979;-81
2023/12/13 01:13:00;;;;;;;;;;;;;;;;;;5029974;28;19921;-82
2023/12/13 01:15:26;;;;;;;;;;;;;;;;;;5037403;28;19964;-81
2023/12/13 01:17:51;;;;;;;;;;;;;;;;;;5025154;28;19964;-81
2023/12/13 01:20:16;;;;;;;;;;;;;;;;;;5023681;28;19984;-82
2023/12/13 01:22:41;;;;;;;;;;;;;;;;;;5034631;28;19927;-81
2023/12/13 01:25:06;;;;;;;;;;;;;;;;;;5041250;28;19921;-82
2023/12/13 01:27:31;;;;;;;;;;;;;;;;;;5040301;28;20259;-81
2023/12/13 01:29:56;;;;;;;;;;;;;;;;;;5035679;28;19922;-84
2023/12/13 01:32:21;;;;;;;;;;;;;;;;;;5031035;28;20004;-81
2023/12/13 01:34:46;;;;;;;;;;;;;;;;;;5038381;28;20268;-82
2023/12/13 01:37:12;;;;;;;;;;;;;;;;;;5044078;28;20452;-82
2023/12/13 01:39:37;;;;;;;;;;;;;;;;;;5049070;28;19931;-82
2023/12/13 01:42:02;;;;;;;;;;;;;;;;;;5038773;28;20056;-81
2023/12/13 01:44:27;;;;;;;;;;;;;;;;;;5051246;28;20052;-82
2023/12/13 01:46:52;;;;;;;;;;;;;;;;;;5043238;28;19921;-81
2023/12/13 01:49:17;;;;;;;;;;;;;;;;;;5046681;28;19921;-83
2023/12/13 01:51:42;;;;;;;;;;;;;;;;;;5042481;28;19928;-81
2023/12/13 01:54:08;;;;;;;;;;;;;;;;;;5044566;28;19968;-83
2023/12/13 01:56:33;;;;;;;;;;;;;;;;;;5031972;28;20024;-81
2023/12/13 01:58:58;;;;;;;;;;;;;;;;;;5047896;28;19917;-83
2023/12/13 02:01:23;;;;;;;;;;;;;;;;;;5042744;28;19928;-83
2023/12/13 02:03:48;;;;;;;;;;;;;;;;;;5046258;28;19988;-82
2023/12/13 02:06:13;;;;;;;;;;;;;;;;;;5048840;28;19921;-81
2023/12/13 02:08:38;;;;;;;;;;;;;;;;;;5045339;28;19928;-82
2023/12/13 02:11:03;;;;;;;;;;;;;;;;;;5032177;28;19929;-83
2023/12/13 02:13:28;;;;;;;;;;;;;;;;;;5045690;28;20357;-83
2023/12/13 02:15:54;;;;;;;;;;;;;;;;;;5046754;28;19925;-83
2023/12/13 02:18:19;;;;;;;;;;;;;;;;;;5044956;28;19964;-82
2023/12/13 02:20:44;;;;;;;;;;;;;;;;;;5042510;28;20018;-82
2023/12/13 02:23:09;;;;;;;;;;;;;;;;;;5043152;28;19975;-81
2023/12/13 02:25:34;;;;;;;;;;;;;;;;;;5048103;28;19943;-81
2023/12/13 02:27:59;;;;;;;;;;;;;;;;;;5045939;28;19964;-82
2023/12/13 02:30:24;;;;;;;;;;;;;;;;;;5042759;28;19968;-81
2023/12/13 02:32:50;;;;;;;;;;;;;;;;;;5039199;28;19956;-83
2023/12/13 02:35:16;;;;;;;;;;;;;;;;;;5039352;28;19932;-81
2023/12/13 02:37:41;;;;;;;;;;;;;;;;;;5039761;28;19921;-82
2023/12/13 02:40:06;;;;;;;;;;;;;;;;;;5046929;28;19927;-80
2023/12/13 02:42:31;;;;;;;;;;;;;;;;;;5041933;28;19921;-82
2023/12/13 02:44:56;;;;;;;;;;;;;;;;;;5051354;28;19931;-81
2023/12/13 02:47:25;;;;;;;;;;;;;;;;;;5038846;28;20348;-83
2023/12/13 02:49:50;;;;;;;;;;;;;;;;;;5040816;28;19948;-81
2023/12/13 02:52:15;;;;;;;;;;;;;;;;;;5034617;28;19918;-82
2023/12/13 02:54:40;;;;;;;;;;;;;;;;;;5050012;28;19921;-81
2023/12/13 02:57:05;;;;;;;;;;;;;;;;;;5025820;28;19921;-81
2023/12/13 02:59:31;;;;;;;;;;;;;;;;;;5040325;28;20275;-80
2023/12/13 03:01:56;;;;;;;;;;;;;;;;;;5034261;28;19925;-83
2023/12/13 03:04:21;;;;;;;;;;;;;;;;;;5040307;28;19917;-83
2023/12/13 03:06:47;;;;;;;;;;;;;;;;;;5041410;28;19917;-81
2023/12/13 03:09:12;;;;;;;;;;;;;;;;;;5042721;28;19936;-80
2023/12/13 03:11:39;;;;;;;;;;;;;;;;;;5030655;28;19961;-82
2023/12/13 03:14:04;;;;;;;;;;;;;;;;;;5024708;28;19925;-82
2023/12/13 03:16:29;;;;;;;;;;;;;;;;;;5029120;28;19925;-82
2023/12/13 03:18:54;;;;;;;;;;;;;;;;;;5032864;28;20378;-82
2023/12/13 03:21:19;;;;;;;;;;;;;;;;;;5027502;28;19921;-81
2023/12/13 03:23:44;;;;;;;;;;;;;;;;;;5041827;28;19928;-82
2023/12/13 03:26:09;;;;;;;;;;;;;;;;;;5029683;28;19921;-81
2023/12/13 03:28:35;;;;;;;;;;;;;;;;;;5031796;28;20318;-81
2023/12/13 03:31:00;;;;;;;;;;;;;;;;;;5033860;28;19922;-81
2023/12/13 03:33:26;;;;;;;;;;;;;;;;;;5024210;28;20385;-81
2023/12/13 03:35:51;;;;;;;;;;;;;;;;;;5019612;28;19956;-82
2023/12/13 03:38:16;;;;;;;;;;;;;;;;;;5026829;28;19925;-80
2023/12/13 03:40:41;;;;;;;;;;;;;;;;;;5027171;28;19929;-82
2023/12/13 03:43:06;;;;;;;;;;;;;;;;;;5030296;28;20371;-81
2023/12/13 03:45:31;;;;;;;;;;;;;;;;;;5026378;28;19921;-81
2023/12/13 03:47:56;;;;;;;;;;;;;;;;;;5030026;28;20167;-82
2023/12/13 03:50:21;;;;;;;;;;;;;;;;;;5031979;28;19936;-82
2023/12/13 03:52:46;;;;;;;;;;;;;;;;;;5040707;28;19920;-81
2023/12/13 03:55:12;;;;;;;;;;;;;;;;;;5027882;28;19929;-81
2023/12/13 03:57:38;;;;;;;;;;;;;;;;;;5026580;28;20497;-81
2023/12/13 04:00:03;;;;;;;;;;;;;;;;;;5030264;28;20525;-81
2023/12/13 04:02:28;;;;;;;;;;;;;;;;;;5025919;28;19921;-81
2023/12/13 04:04:53;;;;;;;;;;;;;;;;;;5027846;28;20007;-81
2023/12/13 04:07:18;;;;;;;;;;;;;;;;;;5026909;28;19921;-81
2023/12/13 04:09:43;;;;;;;;;;;;;;;;;;5037515;28;19940;-81
2023/12/13 04:12:08;;;;;;;;;;;;;;;;;;5028875;28;19981;-82
2023/12/13 04:14:34;;;;;;;;;;;;;;;;;;5027158;28;19974;-81
2023/12/13 04:16:59;;;;;;;;;;;;;;;;;;5030891;28;19924;-81
2023/12/13 04:19:24;;;;;;;;;;;;;;;;;;5027095;28;19925;-80
2023/12/13 04:21:49;;;;;;;;;;;;;;;;;;5024197;28;19922;-82
2023/12/13 04:24:14;;;;;;;;;;;;;;;;;;5028139;28;19921;-81
2023/12/13 04:26:40;;;;;;;;;;;;;;;;;;5025546;28;20374;-80
2023/12/13 04:29:05;;;;;;;;;;;;;;;;;;5028309;28;19964;-80
2023/12/13 04:31:30;;;;;;;;;;;;;;;;;;5033106;28;19929;-80
2023/12/13 04:33:55;;;;;;;;;;;;;;;;;;5024748;28;19980;-80
2023/12/13 04:36:20;;;;;;;;;;;;;;;;;;5028515;28;20032;-82
2023/12/13 04:38:45;;;;;;;;;;;;;;;;;;5043094;28;19956;-80
2023/12/13 04:41:11;;;;;;;;;;;;;;;;;;5034219;28;19921;-80
2023/12/13 04:43:36;;;;;;;;;;;;;;;;;;5020288;28;19926;-80
2023/12/13 04:46:01;;;;;;;;;;;;;;;;;;5023248;28;19968;-81
2023/12/13 04:48:26;;;;;;;;;;;;;;;;;;5025509;28;19956;-80
2023/12/13 04:50:51;;;;;;;;;;;;;;;;;;5028489;28;19936;-80
2023/12/13 04:53:16;;;;;;;;;;;;;;;;;;5026226;28;19921;-80
2023/12/13 04:55:41;;;;;;;;;;;;;;;;;;5022360;28;19933;-82
2023/12/13 04:58:06;;;;;;;;;;;;;;;;;;5032354;28;19921;-81
2023/12/13 05:00:32;;;;;;;;;;;;;;;;;;5034152;28;19921;-82
2023/12/13 05:02:57;;;;;;;;;;;;;;;;;;5024408;28;20337;-80
2023/12/13 05:05:22;;;;;;;;;;;;;;;;;;5026655;28;19987;-81
2023/12/13 05:07:47;;;;;;;;;;;;;;;;;;5029397;28;20524;-81
2023/12/13 05:10:12;;;;;;;;;;;;;;;;;;5040782;28;19953;-80
2023/12/13 05:12:37;;;;;;;;;;;;;;;;;;5040976;28;19997;-81
2023/12/13 05:15:03;;;;;;;;;;;;;;;;;;5040494;28;19967;-82
2023/12/13 05:17:29;;;;;;;;;;;;;;;;;;5029779;28;19921;-81
2023/12/13 05:19:54;;;;;;;;;;;;;;;;;;5035781;28;19931;-82
2023/12/13 05:22:19;;;;;;;;;;;;;;;;;;5035343;28;19991;-81
2023/12/13 05:24:44;;;;;;;;;;;;;;;;;;5035712;28;20401;-81
2023/12/13 05:27:09;;;;;;;;;;;;;;;;;;5038582;28;19921;-82
2023/12/13 05:29:34;;;;;;;;;;;;;;;;;;5034709;28;19921;-82
2023/12/13 05:31:59;;;;;;;;;;;;;;;;;;5032458;28;19925;-81
2023/12/13 05:34:25;;;;;;;;;;;;;;;;;;5033381;28;19925;-82
2023/12/13 05:36:50;;;;;;;;;;;;;;;;;;5039541;28;19925;-81
2023/12/13 05:39:15;;;;;;;;;;;;;;;;;;5038525;28;19921;-82
2023/12/13 05:41:40;;;;;;;;;;;;;;;;;;5037844;28;19925;-82
2023/12/13 05:44:05;;;;;;;;;;;;;;;;;;5038673;28;19917;-80
2023/12/13 05:46:33;;;;;;;;;;;;;;;;;;5036650;28;19928;-81
2023/12/13 05:48:58;;;;;;;;;;;;;;;;;;5036613;28;19921;-82
2023/12/13 05:51:24;;;;;;;;;;;;;;;;;;5035610;28;19940;-81
2023/12/13 05:53:49;;;;;;;;;;;;;;;;;;5036696;28;19921;-81
2023/12/13 05:56:14;;;;;;;;;;;;;;;;;;5025062;28;19980;-81
2023/12/13 05:58:39;;;;;;;;;;;;;;;;;;5032833;28;19965;-82
2023/12/13 06:01:06;;;;;;;;;;;;;;;;;;5033529;28;20016;-81
2023/12/13 06:03:31;;;;;;;;;;;;;;;;;;5034892;28;20333;-82
2023/12/13 06:05:57;;;;;;;;;;;;;;;;;;5033619;28;20229;-82
2023/12/13 06:08:22;;;;;;;;;;;;;;;;;;5034152;28;19921;-81
2023/12/13 06:10:47;;;;;;;;;;;;;;;;;;5038584;28;19927;-82
2023/12/13 06:13:12;;;;;;;;;;;;;;;;;;5038144;28;19978;-82
2023/12/13 06:15:38;;;;;;;;;;;;;;;;;;5037821;28;19925;-82
2023/12/13 06:18:03;;;;;;;;;;;;;;;;;;5032724;28;19936;-81
2023/12/13 06:20:28;;;;;;;;;;;;;;;;;;5036470;28;19921;-81
2023/12/13 06:22:54;;;;;;;;;;;;;;;;;;5035860;28;19921;-80
2023/12/13 06:25:19;;;;;;;;;;;;;;;;;;5034893;28;20348;-81
2023/12/13 06:27:44;;;;;;;;;;;;;;;;;;5034169;28;19921;-82
2023/12/13 06:30:10;;;;;;;;;;;;;;;;;;5040779;28;20418;-81
2023/12/13 06:32:35;;;;;;;;;;;;;;;;;;5033427;28;20081;-81
2023/12/13 06:35:00;;;;;;;;;;;;;;;;;;5031116;28;20040;-82
2023/12/13 06:37:25;;;;;;;;;;;;;;;;;;5032901;28;19936;-81
2023/12/13 06:39:51;;;;;;;;;;;;;;;;;;5034963;28;20036;-81
2023/12/13 06:42:16;;;;;;;;;;;;;;;;;;5035525;28;20579;-81
2023/12/13 06:44:41;;;;;;;;;;;;;;;;;;5036249;28;19924;-82
2023/12/13 06:47:06;;;;;;;;;;;;;;;;;;5035246;28;19990;-81
2023/12/13 06:49:33;;;;;;;;;;;;;;;;;;5036801;28;19928;-81
2023/12/13 06:51:59;;;;;;;;;;;;;;;;;;5032989;28;20011;-82
2023/12/13 06:54:24;;;;;;;;;;;;;;;;;;5029829;28;20294;-81
2023/12/13 06:56:49;;;;;;;;;;;;;;;;;;5030493;28;19948;-82
2023/12/13 06:59:14;;;;;;;;;;;;;;;;;;5030833;28;19925;-81
2023/12/13 07:01:40;;;;;;;;;;;;;;;;;;5031836;28;20527;-81
2023/12/13 07:04:05;;;;;;;;;;;;;;;;;;5034522;28;19932;-80
2023/12/13 07:06:30;;;;;;;;;;;;;;;;;;5032936;28;19921;-80
2023/12/13 07:08:56;;;;;;;;;;;;;;;;;;5039760;28;19921;-80
2023/12/13 07:11:22;;;;;;;;;;;;;;;;;;5030505;28;19928;-82
2023/12/13 07:13:47;;;;;;;;;;;;;;;;;;5032756;28;19961;-82
2023/12/13 07:16:12;;;;;;;;;;;;;;;;;;5025942;28;19976;-80
2023/12/13 07:18:37;;;;;;;;;;;;;;;;;;5031995;28;19932;-81
2023/12/13 07:21:03;;;;;;;;;;;;;;;;;;5035026;28;20328;-80
2023/12/13 07:23:31;;;;;;;;;;;;;;;;;;5037710;28;19921;-80
2023/12/13 07:25:56;;;;;;;;;;;;;;;;;;5034334;28;19920;-80
2023/12/13 07:28:21;;;;;;;;;;;;;;;;;;5035122;28;19928;-81
2023/12/13 07:30:46;;;;;;;;;;;;;;;;;;5029452;28;19921;-81
2023/12/13 07:33:12;;;;;;;;;;;;;;;;;;5035680;28;19936;-81
2023/12/13 07:35:37;;;;;;;;;;;;;;;;;;5035833;28;20355;-82
2023/12/13 07:38:03;;;;;;;;;;;;;;;;;;5029126;28;19996;-81
2023/12/13 07:40:28;;;;;;;;;;;;;;;;;;5031972;28;19936;-80
2023/12/13 07:42:54;;;;;;;;;;;;;;;;;;5029634;28;19921;-81
2023/12/13 07:45:20;;;;;;;;;;;;;;;;;;5034608;28;19980;-81
2023/12/13 07:47:46;;;;;;;;;;;;;;;;;;5023987;28;19957;-81
2023/12/13 07:50:11;;;;;;;;;;;;;;;;;;5028580;28;19941;-82
2023/12/13 07:52:37;;;;;;;;;;;;;;;;;;5026158;28;19921;-81
2023/12/13 07:55:02;;;;;;;;;;;;;;;;;;5027722;28;20294;-82
2023/12/13 07:57:28;;;;;;;;;;;;;;;;;;5018139;28;19917;-82
2023/12/13 07:59:53;;;;;;;;;;;;;;;;;;5042269;28;20113;-83
2023/12/13 08:02:20;;;;;;;;;;;;;;;;;;5031169;28;19924;-83
2023/12/13 08:04:45;;;;;;;;;;;;;;;;;;5043302;28;19921;-82
2023/12/13 08:07:10;;;;;;;;;;;;;;;;;;5043363;28;19936;-81
2023/12/13 08:09:35;;;;;;;;;;;;;;;;;;5039416;28;19960;-81
2023/12/13 08:12:00;;;;;;;;;;;;;;;;;;5044506;28;19928;-82
2023/12/13 08:14:30;;;;;;;;;;;;;;;;;;5038501;28;19917;-81
2023/12/13 08:16:55;;;;;;;;;;;;;;;;;;5028344;28;20011;-82
2023/12/13 08:19:20;;;;;;;;;;;;;;;;;;5039805;28;19960;-82
2023/12/13 08:21:46;;;;;;;;;;;;;;;;;;5037806;28;19956;-83
2023/12/13 08:24:11;;;;;;;;;;;;;;;;;;5036290;28;20414;-83
2023/12/13 08:26:36;;;;;;;;;;;;;;;;;;5027937;28;21089;-83
2023/12/13 08:29:01;;;;;;;;;;;;;;;;;;5035020;28;19921;-83
2023/12/13 08:31:26;;;;;;;;;;;;;;;;;;5029245;28;19928;-83
2023/12/13 08:33:51;;;;;;;;;;;;;;;;;;5025631;28;20391;-83
2023/12/13 08:36:16;;;;;;;;;;;;;;;;;;5025705;28;20008;-83
2023/12/13 08:38:42;;;;;;;;;;;;;;;;;;5005582;28;20012;-83
2023/12/13 08:41:07;;;;;;;;;;;;;;;;;;5010122;28;19925;-83
2023/12/13 08:43:32;;;;;;;;;;;;;;;;;;5009558;28;19987;-82
2023/12/13 08:45:57;;;;;;;;;;;;;;;;;;5006522;28;21005;-82
2023/12/13 08:48:23;;;;;;;;;;;;;;;;;;5010654;28;19921;-83
2023/12/13 08:50:48;;;;;;;;;;;;;;;;;;5009087;28;19936;-82
2023/12/13 08:53:14;;;;;;;;;;;;;;;;;;5011803;28;19921;-83
2023/12/13 08:55:39;;;;;;;;;;;;;;;;;;5002928;28;19945;-83
2023/12/13 08:58:04;;;;;;;;;;;;;;;;;;5012030;28;20008;-83
2023/12/13 09:00:29;;;;;;;;;;;;;;;;;;5011835;28;19921;-82
2023/12/13 09:02:54;;;;;;;;;;;;;;;;;;5011271;28;19936;-83
2023/12/13 09:05:19;;;;;;;;;;;;;;;;;;5011682;28;19974;-82
2023/12/13 09:07:44;;;;;;;;;;;;;;;;;;5014183;28;20062;-83
2023/12/13 09:10:09;;;;;;;;;;;;;;;;;;5011256;28;19925;-82
2023/12/13 09:12:35;;;;;;;;;;;;;;;;;;5022223;28;20461;-83
2023/12/13 09:15:00;;;;;;;;;;;;;;;;;;5021457;28;19926;-82
2023/12/13 09:17:25;;;;;;;;;;;;;;;;;;5029087;28;20434;-83
2023/12/13 09:19:50;;;;;;;;;;;;;;;;;;5038962;28;20370;-83
2023/12/13 09:22:17;;;;;;;;;;;;;;;;;;5027299;28;19964;-82
2023/12/13 09:24:42;;;;;;;;;;;;;;;;;;5044077;28;19944;-82
2023/12/13 09:27:07;;;;;;;;;;;;;;;;;;5045170;28;19920;-84
2023/12/13 09:29:32;;;;;;;;;;;;;;;;;;5046578;28;19921;-83
2023/12/13 09:32:00;;;;;;;;;;;;;;;;;;5040736;28;19928;-83
2023/12/13 09:34:25;;;;;;;;;;;;;;;;;;5044221;28;19936;-83
2023/12/13 09:36:50;;;;;;;;;;;;;;;;;;5046238;28;19925;-82
2023/12/13 09:39:16;;;;;;;;;;;;;;;;;;5040975;28;19974;-83
2023/12/13 09:41:42;;;;;;;;;;;;;;;;;;5043690;28;19974;-84
2023/12/13 09:44:07;;;;;;;;;;;;;;;;;;5038262;28;19921;-83
2023/12/13 09:46:32;;;;;;;;;;;;;;;;;;5043020;28;19921;-84
2023/12/13 09:48:57;;;;;;;;;;;;;;;;;;5040181;28;19929;-83
2023/12/13 09:51:22;;;;;;;;;;;;;;;;;;5039476;28;20008;-84
2023/12/13 09:53:49;;;;;;;;;;;;;;;;;;5039139;28;19947;-82
2023/12/13 09:56:14;;;;;;;;;;;;;;;;;;5043733;28;19925;-82
2023/12/13 09:58:39;;;;;;;;;;;;;;;;;;5040004;28;19921;-82
2023/12/13 10:01:04;;;;;;;;;;;;;;;;;;5043614;28;19916;-82
2023/12/13 10:03:29;;;;;;;;;;;;;;;;;;5037040;28;20531;-83
2023/12/13 10:05:54;;;;;;;;;;;;;;;;;;5046024;28;19925;-82
2023/12/13 10:08:19;;;;;;;;;;;;;;;;;;5045000;28;19921;-83
2023/12/13 10:10:47;;;;;;;;;;;;;;;;;;5034393;28;19972;-82
2023/12/13 10:13:12;;;;;;;;;;;;;;;;;;5031477;28;20016;-82
2023/12/13 10:15:37;;;;;;;;;;;;;;;;;;5034318;28;19983;-82
2023/12/13 10:18:03;;;;;;;;;;;;;;;;;;5033521;28;19957;-83
2023/12/13 10:20:28;;;;;;;;;;;;;;;;;;5031185;28;20275;-83
2023/12/13 10:22:53;;;;;;;;;;;;;;;;;;5030926;28;20019;-83
2023/12/13 10:25:18;;;;;;;;;;;;;;;;;;5036722;28;19928;-82
2023/12/13 10:27:44;;;;;;;;;;;;;;;;;;5036673;28;19929;-82
2023/12/13 10:30:10;;;;;;;;;;;;;;;;;;5034746;28;19960;-83
2023/12/13 10:32:35;;;;;;;;;;;;;;;;;;5041129;28;20379;-82
2023/12/13 10:35:00;;;;;;;;;;;;;;;;;;5028979;28;20409;-83
2023/12/13 10:37:26;;;;;;;;;;;;;;;;;;5035467;28;20015;-82
2023/12/13 10:39:53;;;;;;;;;;;;;;;;;;5035313;28;19956;-83
2023/12/13 10:42:18;;;;;;;;;;;;;;;;;;5033099;28;19995;-82
2023/12/13 10:44:44;;;;;;;;;;;;;;;;;;5034204;28;19961;-82
2023/12/13 10:47:09;;;;;;;;;;;;;;;;;;5035909;28;20403;-83
2023/12/13 10:49:34;;;;;;;;;;;;;;;;;;5036811;28;19955;-82
2023/12/13 10:51:59;;;;;;;;;;;;;;;;;;5036966;28;19925;-83
2023/12/13 10:54:24;;;;;;;;;;;;;;;;;;5033070;28;19929;-82
2023/12/13 10:56:49;;;;;;;;;;;;;;;;;;5040201;28;20154;-82
2023/12/13 10:59:14;;;;;;;;;;;;;;;;;;5039472;28;19971;-83
2023/12/13 11:01:41;;;;;;;;;;;;;;;;;;5043544;28;20000;-82
2023/12/13 11:04:06;;;;;;;;;;;;;;;;;;5039768;28;20390;-82
2023/12/13 11:06:31;;;;;;;;;;;;;;;;;;5036027;28;20020;-82
2023/12/13 11:08:57;;;;;;;;;;;;;;;;;;5032920;28;19992;-83
2023/12/13 11:11:23;;;;;;;;;;;;;;;;;;5032919;28;19943;-83
2023/12/13 11:13:48;;;;;;;;;;;;;;;;;;5036340;28;19921;-83
2023/12/13 11:16:13;;;;;;;;;;;;;;;;;;5032635;28;20338;-83
2023/12/13 11:18:38;;;;;;;;;;;;;;;;;;5034717;28;20144;-83
2023/12/13 11:21:03;;;;;;;;;;;;;;;;;;5037927;28;19927;-83
2023/12/13 11:23:28;;;;;;;;;;;;;;;;;;5029215;28;19932;-83
2023/12/13 11:25:53;;;;;;;;;;;;;;;;;;5036146;28;19983;-82
2023/12/13 11:28:19;;;;;;;;;;;;;;;;;;5030246;28;19983;-83
2023/12/13 11:30:44;;;;;;;;;;;;;;;;;;5031178;28;19952;-83
2023/12/13 11:33:09;;;;;;;;;;;;;;;;;;5028979;28;19964;-82
2023/12/13 11:35:34;;;;;;;;;;;;;;;;;;5026139;28;21396;-82
2023/12/13 11:38:02;;;;;;;;;;;;;;;;;;5033399;28;19935;-83
2023/12/13 11:40:27;;;;;;;;;;;;;;;;;;5035188;28;19943;-82
2023/12/13 11:42:52;;;;;;;;;;;;;;;;;;5032819;28;19922;-82
2023/12/13 11:45:17;;;;;;;;;;;;;;;;;;5029933;28;20302;-82
2023/12/13 11:47:42;;;;;;;;;;;;;;;;;;5033048;28;20342;-83
2023/12/13 11:50:10;;;;;;;;;;;;;;;;;;5035686;28;20561;-82
2023/12/13 11:52:35;;;;;;;;;;;;;;;;;;5046427;28;19921;-82
2023/12/13 11:55:02;;;;;;;;;;;;;;;;;;5034780;28;19921;-83
2023/12/13 11:57:28;;;;;;;;;;;;;;;;;;5032570;28;19921;-82
2023/12/13 11:59:53;;;;;;;;;;;;;;;;;;5035927;28;20349;-83
2023/12/13 12:02:19;;;;;;;;;;;;;;;;;;5039192;28;19920;-82
2023/12/13 12:04:45;;;;;;;;;;;;;;;;;;5040044;28;19924;-82
2023/12/13 12:07:10;;;;;;;;;;;;;;;;;;5039375;28;19970;-83
2023/12/13 12:09:35;;;;;;;;;;;;;;;;;;5033318;28;20375;-82
2023/12/13 12:12:00;;;;;;;;;;;;;;;;;;5030509;28;20417;-82
2023/12/13 12:14:26;;;;;;;;;;;;;;;;;;5037238;28;20431;-82
2023/12/13 12:16:52;;;;;;;;;;;;;;;;;;5040977;28;20360;-82
2023/12/13 12:19:17;;;;;;;;;;;;;;;;;;5035045;28;19921;-82
2023/12/13 12:21:42;;;;;;;;;;;;;;;;;;5033671;28;19921;-82
2023/12/13 12:24:07;;;;;;;;;;;;;;;;;;5028129;28;20426;-82
2023/12/13 12:26:32;;;;;;;;;;;;;;;;;;5040013;28;20019;-82
2023/12/13 12:28:58;;;;;;;;;;;;;;;;;;5041129;28;20024;-82
2023/12/13 12:31:23;;;;;;;;;;;;;;;;;;5030988;28;19920;-82
2023/12/13 12:33:48;;;;;;;;;;;;;;;;;;5030370;28;19928;-82
2023/12/13 12:36:13;;;;;;;;;;;;;;;;;;5037684;28;20333;-82
2023/12/13 12:38:39;;;;;;;;;;;;;;;;;;5038700;28;19931;-83
2023/12/13 12:41:04;;;;;;;;;;;;;;;;;;5032617;28;19921;-84
2023/12/13 12:43:30;;;;;;;;;;;;;;;;;;5037594;28;19979;-83
2023/12/13 12:45:55;;;;;;;;;;;;;;;;;;5030873;28;19921;-83
2023/12/13 12:48:20;;;;;;;;;;;;;;;;;;5037463;28;19963;-83
2023/12/13 12:50:45;;;;;;;;;;;;;;;;;;5029631;28;20539;-83
2023/12/13 12:53:13;;;;;;;;;;;;;;;;;;5026654;28;19933;-81
2023/12/13 12:55:38;;;;;;;;;;;;;;;;;;5030367;28;19925;-84
2023/12/13 12:58:04;;;;;;;;;;;;;;;;;;5030664;28;20282;-82
2023/12/13 13:00:29;;;;;;;;;;;;;;;;;;5037846;28;19920;-82
2023/12/13 13:02:55;;;;;;;;;;;;;;;;;;5046891;28;20004;-81
2023/12/13 13:05:20;;;;;;;;;;;;;;;;;;5054576;28;19928;-82
2023/12/13 13:07:45;;;;;;;;;;;;;;;;;;5037567;28;19925;-82
2023/12/13 13:10:10;;;;;;;;;;;;;;;;;;5041718;28;19932;-82
2023/12/13 13:12:35;;;;;;;;;;;;;;;;;;5047667;28;20349;-83
2023/12/13 13:15:01;;;;;;;;;;;;;;;;;;5041522;28;20378;-83
2023/12/13 13:17:30;;;;;;;;;;;;;;;;;;5028049;28;19936;-83
2023/12/13 13:19:55;;;;;;;;;;;;;;;;;;5029909;28;19925;-84
2023/12/13 13:22:20;;;;;;;;;;;;;;;;;;5032849;28;20464;-83
2023/12/13 13:24:45;;;;;;;;;;;;;;;;;;5031373;28;19925;-83
2023/12/13 13:27:10;;;;;;;;;;;;;;;;;;5037974;28;19925;-82
2023/12/13 13:29:35;;;;;;;;;;;;;;;;;;5034073;28;19921;-83
2023/12/13 13:32:00;;;;;;;;;;;;;;;;;;5020701;28;19968;-83
2023/12/13 13:34:25;;;;;;;;;;;;;;;;;;5031476;28;19925;-83
2023/12/13 13:36:51;;;;;;;;;;;;;;;;;;5028973;28;20379;-83
2023/12/13 13:39:16;;;;;;;;;;;;;;;;;;5035130;28;20375;-83
2023/12/13 13:41:41;;;;;;;;;;;;;;;;;;5031144;28;19921;-83
2023/12/13 13:44:06;;;;;;;;;;;;;;;;;;5026132;28;19957;-83
2023/12/13 13:46:31;;;;;;;;;;;;;;;;;;5033297;28;20264;-82
2023/12/13 13:48:56;;;;;;;;;;;;;;;;;;5035417;28;20428;-83
2023/12/13 13:51:24;;;;;;;;;;;;;;;;;;5037738;28;19936;-83
2023/12/13 13:53:49;;;;;;;;;;;;;;;;;;5029513;28;19966;-83
2023/12/13 13:56:14;;;;;;;;;;;;;;;;;;5033013;28;20016;-83
2023/12/13 13:58:39;;;;;;;;;;;;;;;;;;5042307;28;19998;-83
2023/12/13 14:01:04;;;;;;;;;;;;;;;;;;5039864;28;20000;-84
2023/12/13 14:03:29;;;;;;;;;;;;;;;;;;5035628;28;19925;-83
2023/12/13 14:05:58;;;;;;;;;;;;;;;;;;5033629;28;19921;-84
2023/12/13 14:08:23;;;;;;;;;;;;;;;;;;5039551;28;19925;-82
2023/12/13 14:10:52;;;;;;;;;;;;;;;;;;5037047;28;19929;-83
2023/12/13 14:13:17;;;;;;;;;;;;;;;;;;5044160;28;19929;-83
2023/12/13 14:15:43;;;;;;;;;;;;;;;;;;5052118;28;19928;-83
2023/12/13 14:18:08;;;;;;;;;;;;;;;;;;5035992;28;19936;-83
2023/12/13 14:20:33;;;;;;;;;;;;;;;;;;5031301;28;20004;-83
2023/12/13 14:22:58;;;;;;;;;;;;;;;;;;5038913;28;19960;-84
2023/12/13 14:25:23;;;;;;;;;;;;;;;;;;5040015;28;20016;-83
2023/12/13 14:27:49;;;;;;;;;;;;;;;;;;5039045;28;19921;-84
2023/12/13 14:30:14;;;;;;;;;;;;;;;;;;5041976;28;20390;-82
2023/12/13 14:32:39;;;;;;;;;;;;;;;;;;5036882;28;19969;-84
2023/12/13 14:35:04;;;;;;;;;;;;;;;;;;5032970;28;19936;-83
2023/12/13 14:37:29;;;;;;;;;;;;;;;;;;5038718;28;20248;-83
2023/12/13 14:39:55;;;;;;;;;;;;;;;;;;5044334;28;19921;-83
2023/12/13 14:42:20;;;;;;;;;;;;;;;;;;5047642;28;19987;-83
2023/12/13 14:44:45;;;;;;;;;;;;;;;;;;5039305;28;19921;-83
2023/12/13 14:47:10;;;;;;;;;;;;;;;;;;5034823;28;20405;-83
2023/12/13 14:49:35;;;;;;;;;;;;;;;;;;5038160;28;19921;-84
2023/12/13 14:52:00;;;;;;;;;;;;;;;;;;5038979;28;19964;-82
2023/12/13 14:54:25;;;;;;;;;;;;;;;;;;5030548;28;20349;-83
2023/12/13 14:56:50;;;;;;;;;;;;;;;;;;5036254;28;19933;-83
2023/12/13 14:59:15;;;;;;;;;;;;;;;;;;5030526;28;19921;-84
2023/12/13 15:01:45;;;;;;;;;;;;;;;;;;5039970;28;19940;-83
2023/12/13 15:04:10;;;;;;;;;;;;;;;;;;5040015;28;19951;-84
2023/12/13 15:06:36;;;;;;;;;;;;;;;;;;5031986;28;20283;-83
2023/12/13 15:09:01;;;;;;;;;;;;;;;;;;5037828;28;19921;-83
2023/12/13 15:11:26;;;;;;;;;;;;;;;;;;5041447;28;19978;-83
2023/12/13 15:13:51;;;;;;;;;;;;;;;;;;5033579;28;19987;-82
2023/12/13 15:16:16;;;;;;;;;;;;;;;;;;5036793;28;19960;-82
2023/12/13 15:18:41;;;;;;;;;;;;;;;;;;5037122;28;20374;-82
2023/12/13 15:21:06;;;;;;;;;;;;;;;;;;5038512;28;19964;-83
2023/12/13 15:23:31;;;;;;;;;;;;;;;;;;5031819;28;19921;-82
2023/12/13 15:25:56;;;;;;;;;;;;;;;;;;5032626;28;19928;-83
2023/12/13 15:28:22;;;;;;;;;;;;;;;;;;5040332;28;19925;-83
2023/12/13 15:30:47;;;;;;;;;;;;;;;;;;5042398;28;19917;-83
2023/12/13 15:33:12;;;;;;;;;;;;;;;;;;5032149;28;20198;-82
2023/12/13 15:35:38;;;;;;;;;;;;;;;;;;5038753;28;19925;-82
2023/12/13 15:38:03;;;;;;;;;;;;;;;;;;5038802;28;19937;-83
2023/12/13 15:40:28;;;;;;;;;;;;;;;;;;5051904;28;19921;-82
2023/12/13 15:42:53;;;;;;;;;;;;;;;;;;5041018;28;20382;-83
2023/12/13 15:45:18;;;;;;;;;;;;;;;;;;5031389;28;19925;-83
2023/12/13 15:47:43;;;;;;;;;;;;;;;;;;5032169;28;19921;-83
2023/12/13 15:50:08;;;;;;;;;;;;;;;;;;5043673;28;20008;-84
2023/12/13 15:52:36;;;;;;;;;;;;;;;;;;5034278;28;19927;-84
2023/12/13 15:55:02;;;;;;;;;;;;;;;;;;5038790;28;19927;-84
2023/12/13 15:57:27;;;;;;;;;;;;;;;;;;5044026;28;19948;-83
2023/12/13 15:59:53;;;;;;;;;;;;;;;;;;5047470;28;19918;-84
2023/12/13 16:02:19;;;;;;;;;;;;;;;;;;5031458;28;19936;-83
2023/12/13 16:04:44;;;;;;;;;;;;;;;;;;5026325;28;19933;-82
2023/12/13 16:07:10;;;;;;;;;;;;;;;;;;5053003;28;20007;-83
2023/12/13 16:09:35;;;;;;;;;;;;;;;;;;5044410;28;19920;-83
2023/12/13 16:12:00;;;;;;;;;;;;;;;;;;5044102;28;19921;-84
2023/12/13 16:14:25;;;;;;;;;;;;;;;;;;5040712;28;19975;-83
2023/12/13 16:16:50;;;;;;;;;;;;;;;;;;5038895;28;20307;-83
2023/12/13 16:19:16;;;;;;;;;;;;;;;;;;5040110;28;20288;-81
2023/12/13 16:21:42;;;;;;;;;;;;;;;;;;5052654;28;19921;-83
2023/12/13 16:24:08;;;;;;;;;;;;;;;;;;5057384;28;19960;-84
2023/12/13 16:26:33;;;;;;;;;;;;;;;;;;5039388;28;19928;-82
2023/12/13 16:28:58;;;;;;;;;;;;;;;;;;5041995;28;19928;-83
2023/12/13 16:31:23;;;;;;;;;;;;;;;;;;5040924;28;19937;-82